sensor_id;sensor_type;location;lat;lon;timestamp;P1;durP1;ratioP1;P2;durP2;ratioP2
7961;SDS011;4026;43.652;24.906;2023-05-20T00:00:37;2.90;;;2.07;;
7961;SDS011;4026;43.652;24.906;2023-05-20T00:03:03;5.13;;;2.40;;
7961;SDS011;4026;43.652;24.906;2023-05-20T00:05:32;4.07;;;2.77;;
7961;SDS011;4026;43.652;24.906;2023-05-20T00:07:58;7.10;;;3.00;;
7961;SDS011;4026;43.652;24.906;2023-05-20T00:10:28;3.00;;;2.33;;
7961;SDS011;4026;43.652;24.906;2023-05-20T00:12:55;4.10;;;2.47;;
7961;SDS011;4026;43.652;24.906;2023-05-20T00:15:22;5.10;;;2.70;;
7961;SDS011;4026;43.652;24.906;2023-05-20T00:17:49;3.07;;;2.10;;
7961;SDS011;4026;43.652;24.906;2023-05-20T00:20:16;8.43;;;3.20;;
7961;SDS011;4026;43.652;24.906;2023-05-20T00:22:44;3.40;;;2.13;;
7961;SDS011;4026;43.652;24.906;2023-05-20T00:25:11;4.03;;;2.33;;
7961;SDS011;4026;43.652;24.906;2023-05-20T00:27:38;4.03;;;2.73;;
7961;SDS011;4026;43.652;24.906;2023-05-20T00:30:06;3.37;;;2.17;;
7961;SDS011;4026;43.652;24.906;2023-05-20T00:32:33;3.37;;;2.37;;
7961;SDS011;4026;43.652;24.906;2023-05-20T00:35:01;3.77;;;2.40;;
7961;SDS011;4026;43.652;24.906;2023-05-20T00:37:28;3.53;;;2.77;;
7961;SDS011;4026;43.652;24.906;2023-05-20T00:39:57;3.50;;;2.37;;
7961;SDS011;4026;43.652;24.906;2023-05-20T00:42:23;2.83;;;1.83;;
7961;SDS011;4026;43.652;24.906;2023-05-20T00:44:51;2.30;;;1.70;;
7961;SDS011;4026;43.652;24.906;2023-05-20T00:47:19;2.70;;;2.13;;
7961;SDS011;4026;43.652;24.906;2023-05-20T00:49:49;3.67;;;2.50;;
7961;SDS011;4026;43.652;24.906;2023-05-20T00:52:16;4.37;;;2.73;;
7961;SDS011;4026;43.652;24.906;2023-05-20T00:54:44;2.37;;;1.90;;
7961;SDS011;4026;43.652;24.906;2023-05-20T00:57:12;3.57;;;2.57;;
7961;SDS011;4026;43.652;24.906;2023-05-20T00:59:39;3.33;;;2.77;;
7961;SDS011;4026;43.652;24.906;2023-05-20T01:02:06;2.90;;;2.33;;
7961;SDS011;4026;43.652;24.906;2023-05-20T01:04:33;3.13;;;2.83;;
7961;SDS011;4026;43.652;24.906;2023-05-20T01:07:01;3.30;;;2.53;;
7961;SDS011;4026;43.652;24.906;2023-05-20T01:09:30;3.73;;;2.50;;
7961;SDS011;4026;43.652;24.906;2023-05-20T01:11:58;2.77;;;2.23;;
7961;SDS011;4026;43.652;24.906;2023-05-20T01:14:34;3.40;;;2.33;;
7961;SDS011;4026;43.652;24.906;2023-05-20T01:17:06;5.00;;;2.17;;
7961;SDS011;4026;43.652;24.906;2023-05-20T01:19:37;2.97;;;2.30;;
7961;SDS011;4026;43.652;24.906;2023-05-20T01:22:09;3.50;;;2.23;;
7961;SDS011;4026;43.652;24.906;2023-05-20T01:24:39;7.83;;;2.90;;
7961;SDS011;4026;43.652;24.906;2023-05-20T01:27:07;3.00;;;2.53;;
7961;SDS011;4026;43.652;24.906;2023-05-20T01:29:35;3.57;;;2.07;;
7961;SDS011;4026;43.652;24.906;2023-05-20T01:32:03;2.77;;;1.90;;
7961;SDS011;4026;43.652;24.906;2023-05-20T01:34:32;2.53;;;2.23;;
7961;SDS011;4026;43.652;24.906;2023-05-20T01:37:01;3.40;;;2.17;;
7961;SDS011;4026;43.652;24.906;2023-05-20T01:39:30;4.17;;;2.67;;
7961;SDS011;4026;43.652;24.906;2023-05-20T01:42:00;3.17;;;2.20;;
7961;SDS011;4026;43.652;24.906;2023-05-20T01:44:28;2.87;;;2.47;;
7961;SDS011;4026;43.652;24.906;2023-05-20T01:46:56;2.80;;;1.70;;
7961;SDS011;4026;43.652;24.906;2023-05-20T01:49:23;8.53;;;2.30;;
7961;SDS011;4026;43.652;24.906;2023-05-20T01:51:49;3.23;;;2.23;;
7961;SDS011;4026;43.652;24.906;2023-05-20T01:54:16;3.07;;;2.37;;
7961;SDS011;4026;43.652;24.906;2023-05-20T01:56:44;2.77;;;1.40;;
7961;SDS011;4026;43.652;24.906;2023-05-20T01:59:12;3.03;;;2.03;;
7961;SDS011;4026;43.652;24.906;2023-05-20T02:01:39;3.50;;;2.47;;
7961;SDS011;4026;43.652;24.906;2023-05-20T02:04:06;6.60;;;2.37;;
7961;SDS011;4026;43.652;24.906;2023-05-20T02:06:33;2.20;;;2.00;;
7961;SDS011;4026;43.652;24.906;2023-05-20T02:09:00;3.83;;;2.53;;
7961;SDS011;4026;43.652;24.906;2023-05-20T02:11:26;3.17;;;2.40;;
7961;SDS011;4026;43.652;24.906;2023-05-20T02:13:53;2.37;;;1.97;;
7961;SDS011;4026;43.652;24.906;2023-05-20T02:16:21;2.57;;;2.33;;
7961;SDS011;4026;43.652;24.906;2023-05-20T02:18:48;3.10;;;2.10;;
7961;SDS011;4026;43.652;24.906;2023-05-20T02:21:17;5.10;;;3.47;;
7961;SDS011;4026;43.652;24.906;2023-05-20T02:23:44;4.67;;;2.90;;
7961;SDS011;4026;43.652;24.906;2023-05-20T02:26:11;3.77;;;2.53;;
7961;SDS011;4026;43.652;24.906;2023-05-20T02:28:38;2.43;;;2.07;;
7961;SDS011;4026;43.652;24.906;2023-05-20T02:31:09;2.63;;;2.10;;
7961;SDS011;4026;43.652;24.906;2023-05-20T02:33:37;2.23;;;2.03;;
7961;SDS011;4026;43.652;24.906;2023-05-20T02:36:04;3.33;;;2.07;;
7961;SDS011;4026;43.652;24.906;2023-05-20T02:38:31;3.80;;;2.90;;
7961;SDS011;4026;43.652;24.906;2023-05-20T02:40:57;6.40;;;2.93;;
7961;SDS011;4026;43.652;24.906;2023-05-20T02:43:24;3.03;;;2.33;;
7961;SDS011;4026;43.652;24.906;2023-05-20T02:45:51;3.70;;;2.40;;
7961;SDS011;4026;43.652;24.906;2023-05-20T02:48:18;3.10;;;2.40;;
7961;SDS011;4026;43.652;24.906;2023-05-20T02:50:46;4.33;;;2.80;;
7961;SDS011;4026;43.652;24.906;2023-05-20T02:53:13;3.23;;;2.40;;
7961;SDS011;4026;43.652;24.906;2023-05-20T02:55:40;4.17;;;2.30;;
7961;SDS011;4026;43.652;24.906;2023-05-20T02:58:08;2.37;;;1.53;;
7961;SDS011;4026;43.652;24.906;2023-05-20T03:00:37;3.70;;;2.57;;
7961;SDS011;4026;43.652;24.906;2023-05-20T03:03:04;2.90;;;2.03;;
7961;SDS011;4026;43.652;24.906;2023-05-20T03:05:31;3.30;;;2.20;;
7961;SDS011;4026;43.652;24.906;2023-05-20T03:08:03;2.93;;;2.30;;
7961;SDS011;4026;43.652;24.906;2023-05-20T03:10:29;4.90;;;3.23;;
7961;SDS011;4026;43.652;24.906;2023-05-20T03:12:56;4.23;;;2.70;;
7961;SDS011;4026;43.652;24.906;2023-05-20T03:15:23;4.83;;;3.53;;
7961;SDS011;4026;43.652;24.906;2023-05-20T03:17:50;3.67;;;2.83;;
7961;SDS011;4026;43.652;24.906;2023-05-20T03:20:17;4.87;;;2.60;;
7961;SDS011;4026;43.652;24.906;2023-05-20T03:22:44;3.73;;;2.50;;
7961;SDS011;4026;43.652;24.906;2023-05-20T03:25:12;2.53;;;2.23;;
7961;SDS011;4026;43.652;24.906;2023-05-20T03:27:39;4.43;;;2.50;;
7961;SDS011;4026;43.652;24.906;2023-05-20T03:30:07;4.17;;;2.63;;
7961;SDS011;4026;43.652;24.906;2023-05-20T03:32:34;3.33;;;2.47;;
7961;SDS011;4026;43.652;24.906;2023-05-20T03:35:01;3.10;;;2.00;;
7961;SDS011;4026;43.652;24.906;2023-05-20T03:37:28;4.97;;;3.23;;
7961;SDS011;4026;43.652;24.906;2023-05-20T03:39:55;5.30;;;2.27;;
7961;SDS011;4026;43.652;24.906;2023-05-20T03:42:23;4.17;;;2.43;;
7961;SDS011;4026;43.652;24.906;2023-05-20T03:44:50;3.00;;;1.97;;
7961;SDS011;4026;43.652;24.906;2023-05-20T03:47:16;4.00;;;2.73;;
7961;SDS011;4026;43.652;24.906;2023-05-20T03:49:43;3.13;;;2.40;;
7961;SDS011;4026;43.652;24.906;2023-05-20T03:52:10;6.83;;;3.33;;
7961;SDS011;4026;43.652;24.906;2023-05-20T03:54:37;7.03;;;2.77;;
7961;SDS011;4026;43.652;24.906;2023-05-20T03:57:03;7.70;;;2.00;;
7961;SDS011;4026;43.652;24.906;2023-05-20T03:59:32;5.33;;;2.33;;
7961;SDS011;4026;43.652;24.906;2023-05-20T04:01:59;2.37;;;1.90;;
7961;SDS011;4026;43.652;24.906;2023-05-20T04:04:25;3.90;;;2.40;;
7961;SDS011;4026;43.652;24.906;2023-05-20T04:06:52;4.13;;;2.73;;
7961;SDS011;4026;43.652;24.906;2023-05-20T04:09:20;5.57;;;2.63;;
7961;SDS011;4026;43.652;24.906;2023-05-20T04:11:47;3.17;;;2.17;;
7961;SDS011;4026;43.652;24.906;2023-05-20T04:14:14;3.90;;;1.93;;
7961;SDS011;4026;43.652;24.906;2023-05-20T04:16:42;3.43;;;2.53;;
7961;SDS011;4026;43.652;24.906;2023-05-20T04:19:09;4.33;;;2.83;;
7961;SDS011;4026;43.652;24.906;2023-05-20T04:21:37;3.57;;;2.23;;
7961;SDS011;4026;43.652;24.906;2023-05-20T04:24:04;4.30;;;3.27;;
7961;SDS011;4026;43.652;24.906;2023-05-20T04:26:31;2.90;;;2.60;;
7961;SDS011;4026;43.652;24.906;2023-05-20T04:29:00;7.43;;;3.53;;
7961;SDS011;4026;43.652;24.906;2023-05-20T04:31:28;6.20;;;3.13;;
7961;SDS011;4026;43.652;24.906;2023-05-20T04:33:56;10.00;;;3.97;;
7961;SDS011;4026;43.652;24.906;2023-05-20T04:36:23;10.70;;;3.03;;
7961;SDS011;4026;43.652;24.906;2023-05-20T04:38:52;3.93;;;2.97;;
7961;SDS011;4026;43.652;24.906;2023-05-20T04:41:19;5.07;;;2.33;;
7961;SDS011;4026;43.652;24.906;2023-05-20T04:43:47;4.33;;;2.80;;
7961;SDS011;4026;43.652;24.906;2023-05-20T04:46:14;4.17;;;2.83;;
7961;SDS011;4026;43.652;24.906;2023-05-20T04:48:40;3.67;;;2.57;;
7961;SDS011;4026;43.652;24.906;2023-05-20T04:51:09;6.60;;;3.47;;
7961;SDS011;4026;43.652;24.906;2023-05-20T04:53:36;4.63;;;3.03;;
7961;SDS011;4026;43.652;24.906;2023-05-20T04:56:02;3.90;;;2.30;;
7961;SDS011;4026;43.652;24.906;2023-05-20T04:58:30;5.23;;;2.80;;
7961;SDS011;4026;43.652;24.906;2023-05-20T05:00:57;5.63;;;2.77;;
7961;SDS011;4026;43.652;24.906;2023-05-20T05:03:25;5.03;;;3.07;;
7961;SDS011;4026;43.652;24.906;2023-05-20T05:05:54;5.10;;;2.53;;
7961;SDS011;4026;43.652;24.906;2023-05-20T05:08:22;4.93;;;2.70;;
7961;SDS011;4026;43.652;24.906;2023-05-20T05:10:49;4.53;;;2.83;;
7961;SDS011;4026;43.652;24.906;2023-05-20T05:13:16;5.30;;;3.00;;
7961;SDS011;4026;43.652;24.906;2023-05-20T05:15:43;3.20;;;2.43;;
7961;SDS011;4026;43.652;24.906;2023-05-20T05:18:10;4.33;;;3.20;;
7961;SDS011;4026;43.652;24.906;2023-05-20T05:20:37;4.47;;;3.00;;
7961;SDS011;4026;43.652;24.906;2023-05-20T05:23:03;5.63;;;3.37;;
7961;SDS011;4026;43.652;24.906;2023-05-20T05:25:32;5.60;;;3.17;;
7961;SDS011;4026;43.652;24.906;2023-05-20T05:27:59;4.60;;;3.00;;
7961;SDS011;4026;43.652;24.906;2023-05-20T05:30:26;8.03;;;3.63;;
7961;SDS011;4026;43.652;24.906;2023-05-20T05:32:53;6.43;;;3.70;;
7961;SDS011;4026;43.652;24.906;2023-05-20T05:35:19;6.27;;;3.13;;
7961;SDS011;4026;43.652;24.906;2023-05-20T05:37:46;4.00;;;3.03;;
7961;SDS011;4026;43.652;24.906;2023-05-20T05:40:13;7.90;;;3.77;;
7961;SDS011;4026;43.652;24.906;2023-05-20T05:42:41;5.23;;;3.43;;
7961;SDS011;4026;43.652;24.906;2023-05-20T05:45:08;4.53;;;2.73;;
7961;SDS011;4026;43.652;24.906;2023-05-20T05:47:36;7.07;;;3.47;;
7961;SDS011;4026;43.652;24.906;2023-05-20T05:50:03;5.87;;;3.33;;
7961;SDS011;4026;43.652;24.906;2023-05-20T05:52:30;4.83;;;3.53;;
7961;SDS011;4026;43.652;24.906;2023-05-20T05:54:57;6.10;;;3.30;;
7961;SDS011;4026;43.652;24.906;2023-05-20T05:57:24;5.13;;;3.10;;
7961;SDS011;4026;43.652;24.906;2023-05-20T05:59:52;6.53;;;3.20;;
7961;SDS011;4026;43.652;24.906;2023-05-20T06:02:19;7.47;;;3.77;;
7961;SDS011;4026;43.652;24.906;2023-05-20T06:04:47;5.33;;;3.50;;
7961;SDS011;4026;43.652;24.906;2023-05-20T06:07:13;5.47;;;3.23;;
7961;SDS011;4026;43.652;24.906;2023-05-20T06:09:40;6.03;;;3.20;;
7961;SDS011;4026;43.652;24.906;2023-05-20T06:12:07;6.80;;;3.60;;
7961;SDS011;4026;43.652;24.906;2023-05-20T06:14:34;4.90;;;2.87;;
7961;SDS011;4026;43.652;24.906;2023-05-20T06:17:02;5.73;;;3.60;;
7961;SDS011;4026;43.652;24.906;2023-05-20T06:19:29;6.00;;;3.00;;
7961;SDS011;4026;43.652;24.906;2023-05-20T06:21:56;5.27;;;3.53;;
7961;SDS011;4026;43.652;24.906;2023-05-20T06:24:23;5.30;;;2.93;;
7961;SDS011;4026;43.652;24.906;2023-05-20T06:26:50;5.50;;;2.80;;
7961;SDS011;4026;43.652;24.906;2023-05-20T06:29:17;5.13;;;3.53;;
7961;SDS011;4026;43.652;24.906;2023-05-20T06:31:43;6.13;;;3.17;;
7961;SDS011;4026;43.652;24.906;2023-05-20T06:34:12;5.83;;;3.20;;
7961;SDS011;4026;43.652;24.906;2023-05-20T06:36:38;6.10;;;3.37;;
7961;SDS011;4026;43.652;24.906;2023-05-20T06:39:05;5.73;;;3.33;;
7961;SDS011;4026;43.652;24.906;2023-05-20T06:41:36;5.83;;;3.70;;
7961;SDS011;4026;43.652;24.906;2023-05-20T06:44:04;4.47;;;3.20;;
7961;SDS011;4026;43.652;24.906;2023-05-20T06:46:30;4.63;;;3.17;;
7961;SDS011;4026;43.652;24.906;2023-05-20T06:48:57;5.93;;;3.17;;
7961;SDS011;4026;43.652;24.906;2023-05-20T06:51:26;5.13;;;3.10;;
7961;SDS011;4026;43.652;24.906;2023-05-20T06:53:53;6.63;;;3.03;;
7961;SDS011;4026;43.652;24.906;2023-05-20T06:56:19;6.18;;;3.40;;
7961;SDS011;4026;43.652;24.906;2023-05-20T06:58:46;5.82;;;3.72;;
7961;SDS011;4026;43.652;24.906;2023-05-20T07:01:13;4.57;;;2.95;;
7961;SDS011;4026;43.652;24.906;2023-05-20T07:03:40;4.60;;;2.80;;
7961;SDS011;4026;43.652;24.906;2023-05-20T07:06:08;3.33;;;2.60;;
7961;SDS011;4026;43.652;24.906;2023-05-20T07:08:36;5.28;;;3.20;;
7961;SDS011;4026;43.652;24.906;2023-05-20T07:11:03;5.72;;;3.65;;
7961;SDS011;4026;43.652;24.906;2023-05-20T07:13:30;5.13;;;3.25;;
7961;SDS011;4026;43.652;24.906;2023-05-20T07:15:56;9.27;;;2.90;;
7961;SDS011;4026;43.652;24.906;2023-05-20T07:18:23;5.03;;;2.97;;
7961;SDS011;4026;43.652;24.906;2023-05-20T07:20:50;5.63;;;3.40;;
7961;SDS011;4026;43.652;24.906;2023-05-20T07:23:17;5.20;;;3.25;;
7961;SDS011;4026;43.652;24.906;2023-05-20T07:25:46;4.95;;;3.53;;
7961;SDS011;4026;43.652;24.906;2023-05-20T07:28:14;4.40;;;3.13;;
7961;SDS011;4026;43.652;24.906;2023-05-20T07:30:41;5.65;;;3.55;;
7961;SDS011;4026;43.652;24.906;2023-05-20T07:33:10;5.80;;;3.22;;
7961;SDS011;4026;43.652;24.906;2023-05-20T07:35:37;6.78;;;3.65;;
7961;SDS011;4026;43.652;24.906;2023-05-20T07:38:04;6.95;;;3.53;;
7961;SDS011;4026;43.652;24.906;2023-05-20T07:40:31;6.15;;;3.35;;
7961;SDS011;4026;43.652;24.906;2023-05-20T07:42:59;5.82;;;3.42;;
7961;SDS011;4026;43.652;24.906;2023-05-20T07:45:25;6.25;;;3.40;;
7961;SDS011;4026;43.652;24.906;2023-05-20T07:47:52;7.38;;;3.78;;
7961;SDS011;4026;43.652;24.906;2023-05-20T07:50:19;5.60;;;3.58;;
7961;SDS011;4026;43.652;24.906;2023-05-20T07:52:46;5.25;;;3.40;;
7961;SDS011;4026;43.652;24.906;2023-05-20T07:55:13;5.55;;;3.50;;
7961;SDS011;4026;43.652;24.906;2023-05-20T07:57:39;4.07;;;3.08;;
7961;SDS011;4026;43.652;24.906;2023-05-20T08:00:09;5.68;;;3.70;;
7961;SDS011;4026;43.652;24.906;2023-05-20T08:02:37;4.85;;;3.15;;
7961;SDS011;4026;43.652;24.906;2023-05-20T08:05:04;7.00;;;3.50;;
7961;SDS011;4026;43.652;24.906;2023-05-20T08:07:32;6.70;;;3.13;;
7961;SDS011;4026;43.652;24.906;2023-05-20T08:09:59;6.82;;;3.53;;
7961;SDS011;4026;43.652;24.906;2023-05-20T08:12:26;5.60;;;2.90;;
7961;SDS011;4026;43.652;24.906;2023-05-20T08:14:53;6.57;;;4.13;;
7961;SDS011;4026;43.652;24.906;2023-05-20T08:17:21;8.07;;;3.72;;
7961;SDS011;4026;43.652;24.906;2023-05-20T08:19:48;4.68;;;3.58;;
7961;SDS011;4026;43.652;24.906;2023-05-20T08:22:15;5.40;;;3.17;;
7961;SDS011;4026;43.652;24.906;2023-05-20T08:24:41;5.93;;;3.40;;
7961;SDS011;4026;43.652;24.906;2023-05-20T08:27:08;5.65;;;3.50;;
7961;SDS011;4026;43.652;24.906;2023-05-20T08:29:35;6.90;;;3.90;;
7961;SDS011;4026;43.652;24.906;2023-05-20T08:32:02;5.93;;;3.85;;
7961;SDS011;4026;43.652;24.906;2023-05-20T08:34:30;4.88;;;3.13;;
7961;SDS011;4026;43.652;24.906;2023-05-20T08:36:57;5.57;;;3.05;;
7961;SDS011;4026;43.652;24.906;2023-05-20T08:39:24;4.35;;;3.05;;
7961;SDS011;4026;43.652;24.906;2023-05-20T08:41:51;3.95;;;2.85;;
7961;SDS011;4026;43.652;24.906;2023-05-20T08:44:18;7.80;;;3.65;;
7961;SDS011;4026;43.652;24.906;2023-05-20T08:46:46;4.90;;;3.20;;
7961;SDS011;4026;43.652;24.906;2023-05-20T08:49:13;6.20;;;3.42;;
7961;SDS011;4026;43.652;24.906;2023-05-20T08:51:42;5.22;;;3.28;;
7961;SDS011;4026;43.652;24.906;2023-05-20T08:54:10;5.40;;;3.38;;
7961;SDS011;4026;43.652;24.906;2023-05-20T08:56:38;6.10;;;3.13;;
7961;SDS011;4026;43.652;24.906;2023-05-20T08:59:07;5.60;;;3.50;;
7961;SDS011;4026;43.652;24.906;2023-05-20T09:01:35;8.35;;;3.75;;
7961;SDS011;4026;43.652;24.906;2023-05-20T09:04:07;5.97;;;3.60;;
7961;SDS011;4026;43.652;24.906;2023-05-20T09:06:42;5.22;;;3.22;;
7961;SDS011;4026;43.652;24.906;2023-05-20T09:09:09;6.65;;;3.80;;
7961;SDS011;4026;43.652;24.906;2023-05-20T09:11:37;6.75;;;3.88;;
7961;SDS011;4026;43.652;24.906;2023-05-20T09:14:04;4.80;;;3.13;;
7961;SDS011;4026;43.652;24.906;2023-05-20T09:16:31;6.60;;;3.80;;
7961;SDS011;4026;43.652;24.906;2023-05-20T09:18:58;5.43;;;3.38;;
7961;SDS011;4026;43.652;24.906;2023-05-20T09:21:25;7.55;;;3.15;;
7961;SDS011;4026;43.652;24.906;2023-05-20T09:23:54;7.30;;;4.00;;
7961;SDS011;4026;43.652;24.906;2023-05-20T09:26:21;6.57;;;3.70;;
7961;SDS011;4026;43.652;24.906;2023-05-20T09:28:49;7.05;;;3.92;;
7961;SDS011;4026;43.652;24.906;2023-05-20T09:31:16;7.47;;;3.80;;
7961;SDS011;4026;43.652;24.906;2023-05-20T09:33:43;5.33;;;3.43;;
7961;SDS011;4026;43.652;24.906;2023-05-20T09:36:10;7.10;;;4.13;;
7961;SDS011;4026;43.652;24.906;2023-05-20T09:38:38;5.15;;;3.00;;
7961;SDS011;4026;43.652;24.906;2023-05-20T09:41:08;5.13;;;3.33;;
7961;SDS011;4026;43.652;24.906;2023-05-20T09:43:37;6.57;;;3.88;;
7961;SDS011;4026;43.652;24.906;2023-05-20T09:46:05;5.13;;;3.53;;
7961;SDS011;4026;43.652;24.906;2023-05-20T09:48:33;5.07;;;3.20;;
7961;SDS011;4026;43.652;24.906;2023-05-20T09:51:02;7.03;;;3.78;;
7961;SDS011;4026;43.652;24.906;2023-05-20T09:53:30;5.95;;;3.42;;
7961;SDS011;4026;43.652;24.906;2023-05-20T09:55:57;6.25;;;3.83;;
7961;SDS011;4026;43.652;24.906;2023-05-20T09:58:25;4.55;;;3.42;;
7961;SDS011;4026;43.652;24.906;2023-05-20T10:00:54;6.78;;;3.97;;
7961;SDS011;4026;43.652;24.906;2023-05-20T10:03:21;4.90;;;2.97;;
7961;SDS011;4026;43.652;24.906;2023-05-20T10:05:54;5.72;;;3.55;;
7961;SDS011;4026;43.652;24.906;2023-05-20T10:08:34;5.53;;;3.55;;
7961;SDS011;4026;43.652;24.906;2023-05-20T10:11:14;5.28;;;3.65;;
7961;SDS011;4026;43.652;24.906;2023-05-20T10:13:52;4.85;;;3.10;;
7961;SDS011;4026;43.652;24.906;2023-05-20T10:16:34;7.50;;;3.50;;
7961;SDS011;4026;43.652;24.906;2023-05-20T10:19:12;5.55;;;3.50;;
7961;SDS011;4026;43.652;24.906;2023-05-20T10:21:55;4.38;;;3.08;;
7961;SDS011;4026;43.652;24.906;2023-05-20T10:24:28;5.82;;;3.70;;
7961;SDS011;4026;43.652;24.906;2023-05-20T10:26:56;6.28;;;3.40;;
7961;SDS011;4026;43.652;24.906;2023-05-20T10:29:25;7.10;;;3.47;;
7961;SDS011;4026;43.652;24.906;2023-05-20T10:31:52;6.82;;;3.72;;
7961;SDS011;4026;43.652;24.906;2023-05-20T10:34:20;5.93;;;3.47;;
7961;SDS011;4026;43.652;24.906;2023-05-20T10:36:56;6.05;;;3.95;;
7961;SDS011;4026;43.652;24.906;2023-05-20T10:39:27;5.45;;;3.85;;
7961;SDS011;4026;43.652;24.906;2023-05-20T10:42:04;5.45;;;3.42;;
7961;SDS011;4026;43.652;24.906;2023-05-20T10:44:43;5.63;;;3.45;;
7961;SDS011;4026;43.652;24.906;2023-05-20T10:47:10;8.15;;;3.60;;
7961;SDS011;4026;43.652;24.906;2023-05-20T10:49:39;6.97;;;3.80;;
7961;SDS011;4026;43.652;24.906;2023-05-20T10:52:07;7.65;;;4.05;;
7961;SDS011;4026;43.652;24.906;2023-05-20T10:54:35;6.10;;;3.90;;
7961;SDS011;4026;43.652;24.906;2023-05-20T10:57:08;5.88;;;3.65;;
7961;SDS011;4026;43.652;24.906;2023-05-20T10:59:35;5.75;;;3.92;;
7961;SDS011;4026;43.652;24.906;2023-05-20T11:02:04;6.43;;;4.00;;
7961;SDS011;4026;43.652;24.906;2023-05-20T11:04:31;6.13;;;3.47;;
7961;SDS011;4026;43.652;24.906;2023-05-20T11:06:58;5.35;;;3.58;;
7961;SDS011;4026;43.652;24.906;2023-05-20T11:09:25;3.78;;;2.80;;
7961;SDS011;4026;43.652;24.906;2023-05-20T11:11:52;4.85;;;3.42;;
7961;SDS011;4026;43.652;24.906;2023-05-20T11:14:20;6.55;;;3.83;;
7961;SDS011;4026;43.652;24.906;2023-05-20T11:16:50;6.70;;;3.88;;
7961;SDS011;4026;43.652;24.906;2023-05-20T11:19:19;4.13;;;3.13;;
7961;SDS011;4026;43.652;24.906;2023-05-20T11:21:46;5.90;;;3.53;;
7961;SDS011;4026;43.652;24.906;2023-05-20T11:24:20;4.22;;;3.22;;
7961;SDS011;4026;43.652;24.906;2023-05-20T11:26:48;5.30;;;3.65;;
7961;SDS011;4026;43.652;24.906;2023-05-20T11:29:16;5.25;;;3.00;;
7961;SDS011;4026;43.652;24.906;2023-05-20T11:31:44;5.68;;;3.60;;
7961;SDS011;4026;43.652;24.906;2023-05-20T11:34:11;4.53;;;3.08;;
7961;SDS011;4026;43.652;24.906;2023-05-20T11:36:41;5.45;;;3.20;;
7961;SDS011;4026;43.652;24.906;2023-05-20T11:39:08;5.20;;;3.65;;
7961;SDS011;4026;43.652;24.906;2023-05-20T11:41:36;7.28;;;3.92;;
7961;SDS011;4026;43.652;24.906;2023-05-20T11:44:03;6.07;;;3.70;;
7961;SDS011;4026;43.652;24.906;2023-05-20T11:46:30;6.03;;;3.60;;
7961;SDS011;4026;43.652;24.906;2023-05-20T11:48:57;8.00;;;3.28;;
7961;SDS011;4026;43.652;24.906;2023-05-20T11:51:25;5.55;;;3.42;;
7961;SDS011;4026;43.652;24.906;2023-05-20T11:53:57;5.25;;;3.65;;
7961;SDS011;4026;43.652;24.906;2023-05-20T11:56:27;4.47;;;3.42;;
7961;SDS011;4026;43.652;24.906;2023-05-20T11:58:55;8.02;;;3.47;;
7961;SDS011;4026;43.652;24.906;2023-05-20T12:01:22;5.75;;;3.78;;
7961;SDS011;4026;43.652;24.906;2023-05-20T12:03:49;5.80;;;3.60;;
7961;SDS011;4026;43.652;24.906;2023-05-20T12:06:16;6.10;;;3.35;;
7961;SDS011;4026;43.652;24.906;2023-05-20T12:08:44;4.00;;;3.10;;
7961;SDS011;4026;43.652;24.906;2023-05-20T12:11:13;6.43;;;3.85;;
7961;SDS011;4026;43.652;24.906;2023-05-20T12:13:39;5.35;;;3.38;;
7961;SDS011;4026;43.652;24.906;2023-05-20T12:16:06;4.70;;;3.28;;
7961;SDS011;4026;43.652;24.906;2023-05-20T12:18:33;6.57;;;3.80;;
7961;SDS011;4026;43.652;24.906;2023-05-20T12:21:00;5.20;;;3.60;;
7961;SDS011;4026;43.652;24.906;2023-05-20T12:23:27;5.35;;;3.60;;
7961;SDS011;4026;43.652;24.906;2023-05-20T12:25:58;6.68;;;3.35;;
7961;SDS011;4026;43.652;24.906;2023-05-20T12:28:26;4.78;;;3.38;;
7961;SDS011;4026;43.652;24.906;2023-05-20T12:30:53;5.32;;;3.40;;
7961;SDS011;4026;43.652;24.906;2023-05-20T12:33:20;6.97;;;3.60;;
7961;SDS011;4026;43.652;24.906;2023-05-20T12:35:46;5.78;;;3.35;;
7961;SDS011;4026;43.652;24.906;2023-05-20T12:38:13;3.67;;;3.00;;
7961;SDS011;4026;43.652;24.906;2023-05-20T12:40:40;3.78;;;2.97;;
7961;SDS011;4026;43.652;24.906;2023-05-20T12:43:07;4.35;;;2.88;;
7961;SDS011;4026;43.652;24.906;2023-05-20T12:45:35;5.20;;;3.15;;
7961;SDS011;4026;43.652;24.906;2023-05-20T12:48:03;3.55;;;3.00;;
7961;SDS011;4026;43.652;24.906;2023-05-20T12:50:31;6.03;;;3.33;;
7961;SDS011;4026;43.652;24.906;2023-05-20T12:52:57;7.10;;;3.33;;
7961;SDS011;4026;43.652;24.906;2023-05-20T12:55:24;3.92;;;2.95;;
7961;SDS011;4026;43.652;24.906;2023-05-20T12:57:53;4.38;;;3.13;;
7961;SDS011;4026;43.652;24.906;2023-05-20T13:00:20;4.55;;;2.80;;
7961;SDS011;4026;43.652;24.906;2023-05-20T13:02:48;4.28;;;3.05;;
7961;SDS011;4026;43.652;24.906;2023-05-20T13:05:16;3.97;;;3.00;;
7961;SDS011;4026;43.652;24.906;2023-05-20T13:07:43;7.20;;;3.65;;
7961;SDS011;4026;43.652;24.906;2023-05-20T13:10:10;4.18;;;3.17;;
7961;SDS011;4026;43.652;24.906;2023-05-20T13:12:37;4.85;;;3.40;;
7961;SDS011;4026;43.652;24.906;2023-05-20T13:15:05;4.97;;;3.20;;
7961;SDS011;4026;43.652;24.906;2023-05-20T13:17:32;6.78;;;3.75;;
7961;SDS011;4026;43.652;24.906;2023-05-20T13:20:00;4.53;;;3.55;;
7961;SDS011;4026;43.652;24.906;2023-05-20T13:22:27;4.68;;;3.22;;
7961;SDS011;4026;43.652;24.906;2023-05-20T13:24:54;5.10;;;3.22;;
7961;SDS011;4026;43.652;24.906;2023-05-20T13:27:21;7.70;;;3.65;;
7961;SDS011;4026;43.652;24.906;2023-05-20T13:29:48;4.50;;;3.38;;
7961;SDS011;4026;43.652;24.906;2023-05-20T13:32:14;7.85;;;3.35;;
7961;SDS011;4026;43.652;24.906;2023-05-20T13:34:41;6.20;;;3.63;;
7961;SDS011;4026;43.652;24.906;2023-05-20T13:37:09;4.13;;;3.30;;
7961;SDS011;4026;43.652;24.906;2023-05-20T13:39:36;6.38;;;3.78;;
7961;SDS011;4026;43.652;24.906;2023-05-20T13:42:03;5.30;;;3.13;;
7961;SDS011;4026;43.652;24.906;2023-05-20T13:44:30;6.50;;;3.13;;
7961;SDS011;4026;43.652;24.906;2023-05-20T13:46:57;5.03;;;3.45;;
7961;SDS011;4026;43.652;24.906;2023-05-20T13:49:23;4.60;;;3.15;;
7961;SDS011;4026;43.652;24.906;2023-05-20T13:51:50;6.90;;;3.35;;
7961;SDS011;4026;43.652;24.906;2023-05-20T13:54:18;4.65;;;3.35;;
7961;SDS011;4026;43.652;24.906;2023-05-20T13:56:46;4.03;;;3.03;;
7961;SDS011;4026;43.652;24.906;2023-05-20T13:59:12;7.47;;;3.53;;
7961;SDS011;4026;43.652;24.906;2023-05-20T14:01:39;5.35;;;3.53;;
7961;SDS011;4026;43.652;24.906;2023-05-20T14:04:09;3.50;;;2.83;;
7961;SDS011;4026;43.652;24.906;2023-05-20T14:06:37;6.90;;;3.78;;
7961;SDS011;4026;43.652;24.906;2023-05-20T14:09:04;4.97;;;3.58;;
7961;SDS011;4026;43.652;24.906;2023-05-20T14:11:34;6.05;;;3.67;;
7961;SDS011;4026;43.652;24.906;2023-05-20T14:14:01;5.20;;;3.20;;
7961;SDS011;4026;43.652;24.906;2023-05-20T14:16:27;4.40;;;3.22;;
7961;SDS011;4026;43.652;24.906;2023-05-20T14:18:54;6.40;;;3.42;;
7961;SDS011;4026;43.652;24.906;2023-05-20T14:21:21;5.28;;;3.33;;
7961;SDS011;4026;43.652;24.906;2023-05-20T14:23:48;5.25;;;3.25;;
7961;SDS011;4026;43.652;24.906;2023-05-20T14:26:15;4.53;;;3.30;;
7961;SDS011;4026;43.652;24.906;2023-05-20T14:28:43;5.75;;;3.15;;
7961;SDS011;4026;43.652;24.906;2023-05-20T14:31:10;6.47;;;3.47;;
7961;SDS011;4026;43.652;24.906;2023-05-20T14:33:36;5.40;;;3.70;;
7961;SDS011;4026;43.652;24.906;2023-05-20T14:36:03;4.93;;;3.60;;
7961;SDS011;4026;43.652;24.906;2023-05-20T14:38:30;5.18;;;3.42;;
7961;SDS011;4026;43.652;24.906;2023-05-20T14:40:57;6.25;;;3.00;;
7961;SDS011;4026;43.652;24.906;2023-05-20T14:43:24;4.15;;;3.03;;
7961;SDS011;4026;43.652;24.906;2023-05-20T14:45:52;4.70;;;3.10;;
7961;SDS011;4026;43.652;24.906;2023-05-20T14:48:19;4.35;;;2.92;;
7961;SDS011;4026;43.652;24.906;2023-05-20T14:50:46;3.97;;;2.90;;
7961;SDS011;4026;43.652;24.906;2023-05-20T14:53:13;4.22;;;3.00;;
7961;SDS011;4026;43.652;24.906;2023-05-20T14:55:40;5.60;;;3.30;;
7961;SDS011;4026;43.652;24.906;2023-05-20T14:58:07;4.40;;;3.10;;
7961;SDS011;4026;43.652;24.906;2023-05-20T15:00:34;6.70;;;3.35;;
7961;SDS011;4026;43.652;24.906;2023-05-20T15:03:02;3.30;;;2.58;;